sensor_id;sensor_type;location;lat;lon;timestamp;pressure;altitude;pressure_sealevel;temperature;humidity
60417;BME280;46263;44.726;10.396;2023-11-19T00:01:55;101098.06;;;12.22;50.05
60417;BME280;46263;44.726;10.396;2023-11-19T00:04:21;101085.84;;;12.20;50.52
60417;BME280;46263;44.726;10.396;2023-11-19T00:06:47;101084.81;;;12.23;50.43
60417;BME280;46263;44.726;10.396;2023-11-19T00:09:13;101085.06;;;12.25;50.95
60417;BME280;46263;44.726;10.396;2023-11-19T00:11:38;101076.16;;;12.26;50.67
60417;BME280;46263;44.726;10.396;2023-11-19T00:14:04;101070.25;;;12.35;51.25
60417;BME280;46263;44.726;10.396;2023-11-19T00:16:29;101070.75;;;12.34;52.10
60417;BME280;46263;44.726;10.396;2023-11-19T00:18:57;101082.19;;;12.36;51.62
60417;BME280;46263;44.726;10.396;2023-11-19T00:21:22;101086.00;;;12.38;52.80
60417;BME280;46263;44.726;10.396;2023-11-19T00:23:47;101092.38;;;12.39;52.74
60417;BME280;46263;44.726;10.396;2023-11-19T00:26:13;101097.28;;;12.27;50.61
60417;BME280;46263;44.726;10.396;2023-11-19T00:28:40;101103.91;;;12.24;51.07
60417;BME280;46263;44.726;10.396;2023-11-19T00:31:05;101115.53;;;11.83;51.69
60417;BME280;46263;44.726;10.396;2023-11-19T00:33:31;101106.34;;;11.88;52.10
60417;BME280;46263;44.726;10.396;2023-11-19T00:35:56;101106.03;;;12.07;51.63
60417;BME280;46263;44.726;10.396;2023-11-19T00:38:21;101114.44;;;12.02;52.70
60417;BME280;46263;44.726;10.396;2023-11-19T00:40:47;101114.50;;;11.91;53.20
60417;BME280;46263;44.726;10.396;2023-11-19T00:43:12;101098.69;;;11.93;53.51
60417;BME280;46263;44.726;10.396;2023-11-19T00:45:38;101109.13;;;11.98;54.08
60417;BME280;46263;44.726;10.396;2023-11-19T00:48:04;101099.25;;;11.76;53.02
60417;BME280;46263;44.726;10.396;2023-11-19T00:50:29;101097.47;;;11.73;53.97
60417;BME280;46263;44.726;10.396;2023-11-19T00:52:56;101092.91;;;11.70;54.47
60417;BME280;46263;44.726;10.396;2023-11-19T00:55:21;101088.78;;;11.82;54.28
60417;BME280;46263;44.726;10.396;2023-11-19T00:57:47;101098.19;;;11.90;54.62
60417;BME280;46263;44.726;10.396;2023-11-19T01:00:12;101091.09;;;11.83;52.61
60417;BME280;46263;44.726;10.396;2023-11-19T01:02:44;101092.66;;;11.73;53.26
60417;BME280;46263;44.726;10.396;2023-11-19T01:05:09;101092.09;;;11.86;53.33
60417;BME280;46263;44.726;10.396;2023-11-19T01:07:34;101087.78;;;11.85;53.93
60417;BME280;46263;44.726;10.396;2023-11-19T01:10:00;101094.91;;;11.91;53.86
60417;BME280;46263;44.726;10.396;2023-11-19T01:12:26;101098.72;;;11.83;54.08
60417;BME280;46263;44.726;10.396;2023-11-19T01:14:51;101090.06;;;11.86;53.50
60417;BME280;46263;44.726;10.396;2023-11-19T01:17:16;101079.09;;;11.93;53.48
60417;BME280;46263;44.726;10.396;2023-11-19T01:19:42;101079.56;;;11.97;53.49
60417;BME280;46263;44.726;10.396;2023-11-19T01:22:07;101087.22;;;11.97;51.87
60417;BME280;46263;44.726;10.396;2023-11-19T01:24:32;101083.94;;;11.88;52.20
60417;BME280;46263;44.726;10.396;2023-11-19T01:26:59;101085.72;;;11.91;53.42
60417;BME280;46263;44.726;10.396;2023-11-19T01:29:25;101077.81;;;11.94;51.66
60417;BME280;46263;44.726;10.396;2023-11-19T01:31:50;101080.13;;;11.91;51.59
60417;BME280;46263;44.726;10.396;2023-11-19T01:34:18;101068.19;;;11.85;51.72
60417;BME280;46263;44.726;10.396;2023-11-19T01:36:44;101075.53;;;11.88;52.21
60417;BME280;46263;44.726;10.396;2023-11-19T01:39:11;101068.16;;;11.90;50.48
60417;BME280;46263;44.726;10.396;2023-11-19T01:41:37;101060.78;;;11.82;50.36
60417;BME280;46263;44.726;10.396;2023-11-19T01:44:06;101066.91;;;11.86;50.41
60417;BME280;46263;44.726;10.396;2023-11-19T01:46:32;101049.03;;;11.94;50.08
60417;BME280;46263;44.726;10.396;2023-11-19T01:49:01;101050.53;;;12.00;51.43
60417;BME280;46263;44.726;10.396;2023-11-19T01:51:28;101045.66;;;12.06;51.44
60417;BME280;46263;44.726;10.396;2023-11-19T01:53:54;101033.69;;;12.11;50.93
60417;BME280;46263;44.726;10.396;2023-11-19T01:56:21;101033.50;;;11.93;52.40
60417;BME280;46263;44.726;10.396;2023-11-19T01:58:48;101032.75;;;11.93;52.57
60417;BME280;46263;44.726;10.396;2023-11-19T02:01:15;101035.28;;;11.91;52.41
60417;BME280;46263;44.726;10.396;2023-11-19T02:03:40;101019.50;;;11.93;52.90
60417;BME280;46263;44.726;10.396;2023-11-19T02:06:06;101028.47;;;11.81;51.33
60417;BME280;46263;44.726;10.396;2023-11-19T02:08:32;101023.41;;;11.68;52.86
60417;BME280;46263;44.726;10.396;2023-11-19T02:10:58;101023.41;;;11.74;52.26
60417;BME280;46263;44.726;10.396;2023-11-19T02:13:26;101023.69;;;11.65;50.88
60417;BME280;46263;44.726;10.396;2023-11-19T02:15:52;101035.88;;;11.73;50.43
60417;BME280;46263;44.726;10.396;2023-11-19T02:18:25;101026.00;;;11.66;50.17
60417;BME280;46263;44.726;10.396;2023-11-19T02:20:53;101033.13;;;11.56;50.60
60417;BME280;46263;44.726;10.396;2023-11-19T02:23:20;101024.25;;;11.47;50.60
60417;BME280;46263;44.726;10.396;2023-11-19T02:28:31;101005.41;;;11.47;50.41
60417;BME280;46263;44.726;10.396;2023-11-19T02:30:58;101011.50;;;11.57;51.57
60417;BME280;46263;44.726;10.396;2023-11-19T02:33:24;100999.28;;;11.60;52.24
60417;BME280;46263;44.726;10.396;2023-11-19T02:35:50;100989.59;;;11.66;52.45
60417;BME280;46263;44.726;10.396;2023-11-19T02:38:16;100975.34;;;11.59;52.00
60417;BME280;46263;44.726;10.396;2023-11-19T02:40:41;100986.81;;;11.50;52.48
60417;BME280;46263;44.726;10.396;2023-11-19T02:43:07;100980.22;;;11.53;51.02
60417;BME280;46263;44.726;10.396;2023-11-19T02:45:33;100972.06;;;11.49;51.23
60417;BME280;46263;44.726;10.396;2023-11-19T02:47:59;100967.25;;;11.39;51.55
60417;BME280;46263;44.726;10.396;2023-11-19T02:50:28;100965.22;;;11.34;51.25
60417;BME280;46263;44.726;10.396;2023-11-19T02:52:55;100955.56;;;11.35;51.94
60417;BME280;46263;44.726;10.396;2023-11-19T02:55:24;100948.72;;;11.25;51.63
60417;BME280;46263;44.726;10.396;2023-11-19T02:57:50;100952.03;;;11.29;50.59
60417;BME280;46263;44.726;10.396;2023-11-19T03:00:19;100936.72;;;11.41;51.71
60417;BME280;46263;44.726;10.396;2023-11-19T03:02:49;100942.03;;;11.44;52.15
60417;BME280;46263;44.726;10.396;2023-11-19T03:05:23;100946.09;;;11.54;51.69
60417;BME280;46263;44.726;10.396;2023-11-19T03:07:49;100948.91;;;11.49;50.93
60417;BME280;46263;44.726;10.396;2023-11-19T03:10:14;100947.16;;;11.40;51.08
60417;BME280;46263;44.726;10.396;2023-11-19T03:12:41;100941.06;;;11.36;50.90
60417;BME280;46263;44.726;10.396;2023-11-19T03:15:07;100940.34;;;11.25;50.63
60417;BME280;46263;44.726;10.396;2023-11-19T03:17:38;100943.09;;;11.36;50.66
60417;BME280;46263;44.726;10.396;2023-11-19T03:20:09;100937.53;;;11.25;50.42
60417;BME280;46263;44.726;10.396;2023-11-19T03:22:41;100934.47;;;11.28;50.31
60417;BME280;46263;44.726;10.396;2023-11-19T03:25:07;100932.16;;;11.38;50.16
60417;BME280;46263;44.726;10.396;2023-11-19T03:27:34;100926.56;;;11.38;50.15
60417;BME280;46263;44.726;10.396;2023-11-19T03:30:02;100922.25;;;11.37;49.94
60417;BME280;46263;44.726;10.396;2023-11-19T03:32:27;100929.84;;;11.53;48.99
60417;BME280;46263;44.726;10.396;2023-11-19T03:34:53;100936.78;;;11.24;49.62
60417;BME280;46263;44.726;10.396;2023-11-19T03:37:18;100924.34;;;11.14;50.28
60417;BME280;46263;44.726;10.396;2023-11-19T03:39:44;100925.38;;;11.11;50.32
60417;BME280;46263;44.726;10.396;2023-11-19T03:42:10;100928.88;;;11.23;50.00
60417;BME280;46263;44.726;10.396;2023-11-19T03:44:38;100930.94;;;11.22;49.95
60417;BME280;46263;44.726;10.396;2023-11-19T03:47:04;100945.66;;;11.34;49.51
60417;BME280;46263;44.726;10.396;2023-11-19T03:49:29;100936.22;;;11.37;49.58
60417;BME280;46263;44.726;10.396;2023-11-19T03:51:54;100935.94;;;11.46;48.94
60417;BME280;46263;44.726;10.396;2023-11-19T03:54:20;100931.88;;;11.47;48.90
60417;BME280;46263;44.726;10.396;2023-11-19T03:56:48;100943.38;;;11.27;49.25
60417;BME280;46263;44.726;10.396;2023-11-19T03:59:13;100936.06;;;11.18;49.67
60417;BME280;46263;44.726;10.396;2023-11-19T04:01:40;100947.00;;;11.11;50.00
60417;BME280;46263;44.726;10.396;2023-11-19T04:04:06;100940.88;;;11.07;50.26
60417;BME280;46263;44.726;10.396;2023-11-19T04:06:31;100947.53;;;11.04;50.77
60417;BME280;46263;44.726;10.396;2023-11-19T04:08:57;100937.34;;;11.07;50.24
60417;BME280;46263;44.726;10.396;2023-11-19T04:11:22;100932.75;;;11.04;50.29
60417;BME280;46263;44.726;10.396;2023-11-19T04:13:47;100939.13;;;11.04;50.48
60417;BME280;46263;44.726;10.396;2023-11-19T04:16:14;100940.38;;;11.14;50.37
60417;BME280;46263;44.726;10.396;2023-11-19T04:18:40;100940.56;;;11.32;51.24
60417;BME280;46263;44.726;10.396;2023-11-19T04:21:07;100941.84;;;11.37;50.97
60417;BME280;46263;44.726;10.396;2023-11-19T04:23:32;100936.72;;;11.41;51.44
60417;BME280;46263;44.726;10.396;2023-11-19T04:25:58;100942.03;;;11.44;51.85
60417;BME280;46263;44.726;10.396;2023-11-19T04:28:23;100937.47;;;11.47;51.70
60417;BME280;46263;44.726;10.396;2023-11-19T04:30:52;100943.34;;;11.38;50.44
60417;BME280;46263;44.726;10.396;2023-11-19T04:33:17;100941.31;;;11.33;51.74
60417;BME280;46263;44.726;10.396;2023-11-19T04:35:43;100933.91;;;11.41;51.11
60417;BME280;46263;44.726;10.396;2023-11-19T04:38:08;100935.97;;;11.40;50.32
60417;BME280;46263;44.726;10.396;2023-11-19T04:40:33;100931.66;;;11.34;51.07
60417;BME280;46263;44.726;10.396;2023-11-19T04:42:59;100936.97;;;11.43;51.71
60417;BME280;46263;44.726;10.396;2023-11-19T04:45:24;100930.56;;;11.48;51.25
60417;BME280;46263;44.726;10.396;2023-11-19T04:47:50;100934.41;;;11.45;52.07
60417;BME280;46263;44.726;10.396;2023-11-19T04:50:15;100925.53;;;11.41;51.23
60417;BME280;46263;44.726;10.396;2023-11-19T04:52:41;100923.78;;;11.38;50.65
60417;BME280;46263;44.726;10.396;2023-11-19T04:55:10;100926.88;;;11.23;50.71
60417;BME280;46263;44.726;10.396;2023-11-19T04:57:37;100927.16;;;11.09;50.90
60417;BME280;46263;44.726;10.396;2023-11-19T05:00:02;100912.09;;;11.23;50.60
60417;BME280;46263;44.726;10.396;2023-11-19T05:02:30;100894.84;;;11.19;50.23
60417;BME280;46263;44.726;10.396;2023-11-19T05:04:56;100907.81;;;11.22;51.29
60417;BME280;46263;44.726;10.396;2023-11-19T05:07:22;100909.84;;;11.16;50.96
60417;BME280;46263;44.726;10.396;2023-11-19T05:09:47;100904.78;;;11.09;50.72
60417;BME280;46263;44.726;10.396;2023-11-19T05:12:12;100896.13;;;11.07;50.41
60417;BME280;46263;44.726;10.396;2023-11-19T05:14:38;100889.56;;;10.99;51.02
60417;BME280;46263;44.726;10.396;2023-11-19T05:17:04;100885.47;;;11.11;50.85
60417;BME280;46263;44.726;10.396;2023-11-19T05:19:29;100879.88;;;11.11;50.30
60417;BME280;46263;44.726;10.396;2023-11-19T05:21:54;100878.13;;;10.97;50.69
60417;BME280;46263;44.726;10.396;2023-11-19T05:24:20;100882.97;;;10.91;50.87
60417;BME280;46263;44.726;10.396;2023-11-19T05:26:45;100867.66;;;11.14;50.04
60417;BME280;46263;44.726;10.396;2023-11-19T05:29:12;100866.41;;;11.04;50.29
60417;BME280;46263;44.726;10.396;2023-11-19T05:31:38;100855.97;;;11.10;50.22
60417;BME280;46263;44.726;10.396;2023-11-19T05:34:03;100865.59;;;11.14;50.38
60417;BME280;46263;44.726;10.396;2023-11-19T05:36:30;100867.41;;;11.12;49.87
60417;BME280;46263;44.726;10.396;2023-11-19T05:38:56;100867.66;;;11.09;49.64
60417;BME280;46263;44.726;10.396;2023-11-19T05:41:21;100868.97;;;11.02;50.16
60417;BME280;46263;44.726;10.396;2023-11-19T05:43:47;100863.66;;;10.93;49.90
60417;BME280;46263;44.726;10.396;2023-11-19T05:46:12;100864.91;;;10.98;49.57
60417;BME280;46263;44.726;10.396;2023-11-19T05:48:38;100861.59;;;10.99;50.02
60417;BME280;46263;44.726;10.396;2023-11-19T05:51:05;100865.97;;;10.78;50.59
60417;BME280;46263;44.726;10.396;2023-11-19T05:53:31;100864.69;;;10.90;50.36
60417;BME280;46263;44.726;10.396;2023-11-19T05:55:56;100849.13;;;10.95;51.01
60417;BME280;46263;44.726;10.396;2023-11-19T05:58:26;100848.41;;;10.83;51.92
60417;BME280;46263;44.726;10.396;2023-11-19T06:00:57;100854.50;;;10.98;51.85
60417;BME280;46263;44.726;10.396;2023-11-19T06:03:23;100851.19;;;11.00;52.94
60417;BME280;46263;44.726;10.396;2023-11-19T06:05:49;100850.19;;;10.97;52.85
60417;BME280;46263;44.726;10.396;2023-11-19T06:08:15;100844.31;;;10.95;53.16
60417;BME280;46263;44.726;10.396;2023-11-19T06:10:42;100830.09;;;10.93;52.50
60417;BME280;46263;44.726;10.396;2023-11-19T06:13:13;100842.50;;;11.03;52.76
60417;BME280;46263;44.726;10.396;2023-11-19T06:15:41;100843.59;;;10.84;52.08
60417;BME280;46263;44.726;10.396;2023-11-19T06:18:06;100856.06;;;10.83;51.92
60417;BME280;46263;44.726;10.396;2023-11-19T06:20:33;100854.00;;;10.83;52.07
60417;BME280;46263;44.726;10.396;2023-11-19T06:22:58;100860.38;;;10.89;52.87
60417;BME280;46263;44.726;10.396;2023-11-19T06:25:24;100860.59;;;10.91;52.11
60417;BME280;46263;44.726;10.396;2023-11-19T06:27:50;100864.41;;;10.94;52.02
60417;BME280;46263;44.726;10.396;2023-11-19T06:30:16;100870.75;;;10.94;53.70
60417;BME280;46263;44.726;10.396;2023-11-19T06:32:42;100875.56;;;10.99;52.18
60417;BME280;46263;44.726;10.396;2023-11-19T06:35:08;100871.78;;;10.91;52.50
60417;BME280;46263;44.726;10.396;2023-11-19T06:37:34;100858.84;;;10.83;53.13
60417;BME280;46263;44.726;10.396;2023-11-19T06:40:00;100854.06;;;10.72;53.91
60417;BME280;46263;44.726;10.396;2023-11-19T06:42:25;100854.28;;;10.74;53.62
60417;BME280;46263;44.726;10.396;2023-11-19T06:44:51;100864.72;;;10.79;53.54
60417;BME280;46263;44.726;10.396;2023-11-19T06:47:17;100868.78;;;10.78;53.36
60417;BME280;46263;44.726;10.396;2023-11-19T06:49:45;100870.06;;;10.66;54.12
60417;BME280;46263;44.726;10.396;2023-11-19T06:52:10;100865.75;;;10.65;55.26
60417;BME280;46263;44.726;10.396;2023-11-19T06:54:38;100868.53;;;10.76;55.83
60417;BME280;46263;44.726;10.396;2023-11-19T06:57:04;100874.84;;;10.93;55.02
60417;BME280;46263;44.726;10.396;2023-11-19T06:59:30;100865.47;;;10.80;52.92
60417;BME280;46263;44.726;10.396;2023-11-19T07:01:56;100859.34;;;10.87;52.57
60417;BME280;46263;44.726;10.396;2023-11-19T07:04:21;100870.75;;;10.94;52.61
60417;BME280;46263;44.726;10.396;2023-11-19T07:06:50;100872.53;;;10.97;51.42
60417;BME280;46263;44.726;10.396;2023-11-19T07:09:17;100868.69;;;11.00;52.30
60417;BME280;46263;44.726;10.396;2023-11-19T07:11:43;100877.31;;;11.13;52.83
60417;BME280;46263;44.726;10.396;2023-11-19T07:14:11;100879.50;;;11.31;52.52
60417;BME280;46263;44.726;10.396;2023-11-19T07:16:37;100882.81;;;11.35;51.39
60417;BME280;46263;44.726;10.396;2023-11-19T07:19:04;100888.38;;;11.46;51.48
60417;BME280;46263;44.726;10.396;2023-11-19T07:21:30;100892.41;;;11.50;53.46
60417;BME280;46263;44.726;10.396;2023-11-19T07:23:56;100892.66;;;11.58;52.53
60417;BME280;46263;44.726;10.396;2023-11-19T07:26:22;100881.69;;;11.65;51.51
60417;BME280;46263;44.726;10.396;2023-11-19T07:28:49;100897.69;;;11.65;52.08
60417;BME280;46263;44.726;10.396;2023-11-19T07:31:14;100901.50;;;11.67;51.77
60417;BME280;46263;44.726;10.396;2023-11-19T07:33:40;100909.69;;;11.60;51.95
60417;BME280;46263;44.726;10.396;2023-11-19T07:36:08;100919.06;;;11.73;52.65
60417;BME280;46263;44.726;10.396;2023-11-19T07:38:34;100909.00;;;11.89;52.78
60417;BME280;46263;44.726;10.396;2023-11-19T07:41:00;100913.00;;;12.04;51.65
60417;BME280;46263;44.726;10.396;2023-11-19T07:43:26;100896.63;;;12.13;52.08
60417;BME280;46263;44.726;10.396;2023-11-19T07:45:51;100907.81;;;12.13;51.89
60417;BME280;46263;44.726;10.396;2023-11-19T07:48:17;100898.56;;;12.24;51.59
60417;BME280;46263;44.726;10.396;2023-11-19T07:50:48;100905.19;;;11.92;50.93
60417;BME280;46263;44.726;10.396;2023-11-19T07:53:15;100902.34;;;11.97;51.76
60417;BME280;46263;44.726;10.396;2023-11-19T07:55:41;100916.16;;;11.84;51.88
60417;BME280;46263;44.726;10.396;2023-11-19T07:58:06;100911.81;;;11.89;51.13
60417;BME280;46263;44.726;10.396;2023-11-19T08:00:32;100913.72;;;12.10;51.21
60417;BME280;46263;44.726;10.396;2023-11-19T08:02:57;100917.09;;;11.97;51.65
60417;BME280;46263;44.726;10.396;2023-11-19T08:05:22;100915.25;;;11.71;52.97
60417;BME280;46263;44.726;10.396;2023-11-19T08:07:50;100915.38;;;11.89;53.81
60417;BME280;46263;44.726;10.396;2023-11-19T08:10:15;100917.19;;;11.87;55.01
60417;BME280;46263;44.726;10.396;2023-11-19T08:12:41;100920.41;;;12.01;54.79
60417;BME280;46263;44.726;10.396;2023-11-19T08:15:06;100921.06;;;12.18;55.70
60417;BME280;46263;44.726;10.396;2023-11-19T08:17:32;100922.84;;;12.45;53.42
60417;BME280;46263;44.726;10.396;2023-11-19T08:19:57;100929.56;;;12.66;52.94
60417;BME280;46263;44.726;10.396;2023-11-19T08:22:25;100927.22;;;12.70;50.77
60417;BME280;46263;44.726;10.396;2023-11-19T08:24:50;100924.88;;;12.79;50.20
60417;BME280;46263;44.726;10.396;2023-11-19T08:27:16;100913.50;;;12.96;51.28
60417;BME280;46263;44.726;10.396;2023-11-19T08:29:41;100918.91;;;12.88;48.28
60417;BME280;46263;44.726;10.396;2023-11-19T08:32:07;100927.28;;;12.94;48.28
60417;BME280;46263;44.726;10.396;2023-11-19T08:34:32;100927.34;;;12.59;50.06
60417;BME280;46263;44.726;10.396;2023-11-19T08:36:59;100929.44;;;12.77;50.19
60417;BME280;46263;44.726;10.396;2023-11-19T08:39:24;100924.91;;;12.74;50.38
60417;BME280;46263;44.726;10.396;2023-11-19T08:41:50;100916.59;;;12.63;51.13
60417;BME280;46263;44.726;10.396;2023-11-19T08:44:16;100919.41;;;12.87;51.25
60417;BME280;46263;44.726;10.396;2023-11-19T08:46:51;100910.56;;;13.07;50.83
60417;BME280;46263;44.726;10.396;2023-11-19T08:49:17;100911.78;;;13.35;50.75
60417;BME280;46263;44.726;10.396;2023-11-19T08:51:42;100907.47;;;13.52;49.11
60417;BME280;46263;44.726;10.396;2023-11-19T08:54:08;100903.44;;;13.66;49.14
60417;BME280;46263;44.726;10.396;2023-11-19T08:56:33;100902.16;;;13.67;48.50
60417;BME280;46263;44.726;10.396;2023-11-19T08:59:01;100900.50;;;13.77;47.57
60417;BME280;46263;44.726;10.396;2023-11-19T09:01:26;100896.69;;;13.75;47.92
60417;BME280;46263;44.726;10.396;2023-11-19T09:03:51;100894.25;;;13.84;47.63
60417;BME280;46263;44.726;10.396;2023-11-19T09:06:17;100902.00;;;13.97;47.04
60417;BME280;46263;44.726;10.396;2023-11-19T09:08:43;100908.75;;;14.07;47.18
60417;BME280;46263;44.726;10.396;2023-11-19T09:11:08;100917.19;;;14.07;47.00
60417;BME280;46263;44.726;10.396;2023-11-19T09:13:35;100919.84;;;14.18;47.02
60417;BME280;46263;44.726;10.396;2023-11-19T09:16:00;100927.84;;;14.14;46.69
60417;BME280;46263;44.726;10.396;2023-11-19T09:18:29;100930.66;;;14.14;46.63
60417;BME280;46263;44.726;10.396;2023-11-19T09:20:54;100927.66;;;14.25;46.77
60417;BME280;46263;44.726;10.396;2023-11-19T09:23:20;100932.84;;;14.21;48.69
60417;BME280;46263;44.726;10.396;2023-11-19T09:25:45;100930.50;;;14.25;48.14
60417;BME280;46263;44.726;10.396;2023-11-19T09:28:11;100935.25;;;14.30;49.60
60417;BME280;46263;44.726;10.396;2023-11-19T09:30:36;100929.16;;;14.07;48.99
60417;BME280;46263;44.726;10.396;2023-11-19T09:33:02;100933.88;;;13.99;48.91
60417;BME280;46263;44.726;10.396;2023-11-19T09:35:27;100923.81;;;13.91;49.87
60417;BME280;46263;44.726;10.396;2023-11-19T09:37:53;100921.59;;;14.02;49.58
60417;BME280;46263;44.726;10.396;2023-11-19T09:40:18;100926.97;;;14.19;48.90
60417;BME280;46263;44.726;10.396;2023-11-19T09:42:44;100928.56;;;14.33;48.14
60417;BME280;46263;44.726;10.396;2023-11-19T09:45:15;100922.88;;;14.20;49.06
60417;BME280;46263;44.726;10.396;2023-11-19T09:47:45;100917.50;;;14.03;48.67
60417;BME280;46263;44.726;10.396;2023-11-19T09:50:16;100918.69;;;14.26;48.21
60417;BME280;46263;44.726;10.396;2023-11-19T09:52:43;100924.28;;;14.13;49.32
60417;BME280;46263;44.726;10.396;2023-11-19T09:55:09;100926.97;;;14.19;48.25
60417;BME280;46263;44.726;10.396;2023-11-19T09:57:35;100921.72;;;14.10;49.22
60417;BME280;46263;44.726;10.396;2023-11-19T10:00:03;100915.88;;;14.26;48.58
60417;BME280;46263;44.726;10.396;2023-11-19T10:02:31;100915.91;;;14.39;48.78
60417;BME280;46263;44.726;10.396;2023-11-19T10:04:59;100922.75;;;14.43;48.61
60417;BME280;46263;44.726;10.396;2023-11-19T10:07:25;100916.31;;;14.61;48.53
60417;BME280;46263;44.726;10.396;2023-11-19T10:09:50;100917.81;;;14.49;48.23
60417;BME280;46263;44.726;10.396;2023-11-19T10:12:15;100917.44;;;14.71;48.60
60417;BME280;46263;44.726;10.396;2023-11-19T10:14:42;100913.72;;;14.63;48.41
60417;BME280;46263;44.726;10.396;2023-11-19T10:17:08;100904.91;;;14.54;48.60
60417;BME280;46263;44.726;10.396;2023-11-19T10:19:34;100918.25;;;14.53;48.51
60417;BME280;46263;44.726;10.396;2023-11-19T10:22:06;100908.34;;;14.78;48.23
60417;BME280;46263;44.726;10.396;2023-11-19T10:24:32;100921.34;;;14.81;47.89
60417;BME280;46263;44.726;10.396;2023-11-19T10:27:02;100910.53;;;14.98;48.29
60417;BME280;46263;44.726;10.396;2023-11-19T10:29:44;100908.47;;;15.12;47.37
60417;BME280;46263;44.726;10.396;2023-11-19T10:32:10;100905.47;;;15.10;47.07
60417;BME280;46263;44.726;10.396;2023-11-19T10:34:37;100911.94;;;15.05;47.45
60417;BME280;46263;44.726;10.396;2023-11-19T10:37:04;100906.72;;;14.83;48.14
60417;BME280;46263;44.726;10.396;2023-11-19T10:39:53;100898.38;;;14.90;47.55
60417;BME280;46263;44.726;10.396;2023-11-19T10:42:22;100891.59;;;14.86;47.87
60417;BME280;46263;44.726;10.396;2023-11-19T10:44:47;100892.34;;;15.12;47.65
60417;BME280;46263;44.726;10.396;2023-11-19T10:47:18;100871.25;;;15.31;47.60
60417;BME280;46263;44.726;10.396;2023-11-19T10:49:45;100878.63;;;15.34;47.89
60417;BME280;46263;44.726;10.396;2023-11-19T10:52:17;100882.63;;;15.26;48.49
60417;BME280;46263;44.726;10.396;2023-11-19T10:54:44;100870.91;;;15.35;47.96
60417;BME280;46263;44.726;10.396;2023-11-19T10:57:19;100869.47;;;15.54;47.93
60417;BME280;46263;44.726;10.396;2023-11-19T10:59:45;100874.88;;;15.52;49.09
60417;BME280;46263;44.726;10.396;2023-11-19T11:02:13;100859.00;;;15.75;48.42
60417;BME280;46263;44.726;10.396;2023-11-19T11:04:44;100848.06;;;15.72;46.89
60417;BME280;46263;44.726;10.396;2023-11-19T11:07:12;100849.44;;;15.91;47.66
60417;BME280;46263;44.726;10.396;2023-11-19T11:09:38;100832.16;;;15.95;49.15
60417;BME280;46263;44.726;10.396;2023-11-19T11:12:06;100843.72;;;16.04;47.75
60417;BME280;46263;44.726;10.396;2023-11-19T11:14:32;100837.59;;;16.13;47.14
60417;BME280;46263;44.726;10.396;2023-11-19T11:17:02;100829.75;;;16.19;47.08
60417;BME280;46263;44.726;10.396;2023-11-19T11:19:28;100829.28;;;16.07;47.33
60417;BME280;46263;44.726;10.396;2023-11-19T11:21:54;100833.41;;;16.27;46.96
60417;BME280;46263;44.726;10.396;2023-11-19T11:24:47;100823.78;;;16.43;47.04
60417;BME280;46263;44.726;10.396;2023-11-19T11:38:21;100812.97;;;16.82;45.70
60417;BME280;46263;44.726;10.396;2023-11-19T11:41:19;100806.56;;;16.81;45.38
60417;BME280;46263;44.726;10.396;2023-11-19T11:43:45;100805.66;;;16.86;46.04
60417;BME280;46263;44.726;10.396;2023-11-19T11:49:06;100768.47;;;17.03;45.09
60417;BME280;46263;44.726;10.396;2023-11-19T11:57:06;100767.63;;;17.23;45.47
60417;BME280;46263;44.726;10.396;2023-11-19T12:02:12;100769.41;;;17.05;45.38
60417;BME280;46263;44.726;10.396;2023-11-19T12:04:40;100760.81;;;17.18;46.55
60417;BME280;46263;44.726;10.396;2023-11-19T12:07:17;100764.47;;;17.34;45.23
60417;BME280;46263;44.726;10.396;2023-11-19T12:09:47;100758.84;;;17.41;45.14
60417;BME280;46263;44.726;10.396;2023-11-19T12:12:23;100750.16;;;17.39;44.56
60417;BME280;46263;44.726;10.396;2023-11-19T12:15:08;100748.50;;;17.51;46.07
60417;BME280;46263;44.726;10.396;2023-11-19T12:20:09;100742.84;;;17.58;45.34
60417;BME280;46263;44.726;10.396;2023-11-19T12:22:39;100750.44;;;17.63;44.62
60417;BME280;46263;44.726;10.396;2023-11-19T12:25:06;100756.44;;;17.60;44.18
60417;BME280;46263;44.726;10.396;2023-11-19T12:29:59;100735.91;;;17.67;44.81
60417;BME280;46263;44.726;10.396;2023-11-19T12:32:25;100728.19;;;17.82;44.34
60417;BME280;46263;44.726;10.396;2023-11-19T12:34:50;100733.09;;;17.89;45.30
60417;BME280;46263;44.726;10.396;2023-11-19T12:37:16;100723.09;;;17.96;45.89
60417;BME280;46263;44.726;10.396;2023-11-19T12:39:42;100720.47;;;18.05;45.13
60417;BME280;46263;44.726;10.396;2023-11-19T12:42:08;100728.19;;;18.05;45.15
60417;BME280;46263;44.726;10.396;2023-11-19T12:44:33;100725.34;;;17.97;45.89
60417;BME280;46263;44.726;10.396;2023-11-19T12:47:06;100714.44;;;18.01;46.80
60417;BME280;46263;44.726;10.396;2023-11-19T12:49:32;100711.78;;;18.11;47.40
60417;BME280;46263;44.726;10.396;2023-11-19T12:51:58;100707.09;;;18.21;48.23
60417;BME280;46263;44.726;10.396;2023-11-19T12:54:37;100701.97;;;18.19;47.94
60417;BME280;46263;44.726;10.396;2023-11-19T12:57:04;100695.38;;;18.24;47.65
60417;BME280;46263;44.726;10.396;2023-11-19T12:59:30;100703.50;;;18.28;48.28
60417;BME280;46263;44.726;10.396;2023-11-19T13:01:59;100698.03;;;18.30;48.78
60417;BME280;46263;44.726;10.396;2023-11-19T13:04:29;100694.22;;;18.20;47.56
60417;BME280;46263;44.726;10.396;2023-11-19T13:06:58;100690.84;;;18.29;49.30
60417;BME280;46263;44.726;10.396;2023-11-19T13:09:24;100689.34;;;18.28;49.18